Time;durP1;ratioP1;P1;durP2;ratioP2;P2;SDS_P1;SDS_P2;PMS_P1;PMS_P2;Temp;Humidity;BMP_temperature;BMP_pressure;BME280_temperature;BME280_humidity;BME280_pressure;Samples;Min_cycle;Max_cycle;Signal;HPM_P1;HPM_P2
2022/01/17 00:00:15;;;;;;;4.36;3.43;;;;;;;0.40;69.59;100954.75;443179;118;922668;-75
2022/01/17 00:01:20;;;;;;;5.39;3.55;;;;;;;0.43;69.64;100950.11;450222;116;923120;-75
2022/01/17 00:02:23;;;;;;;5.03;4.21;;;;;;;0.45;69.66;100951.64;441833;117;923378;-75
2022/01/17 00:03:27;;;;;;;5.20;4.16;;;;;;;0.46;69.62;100950.66;441272;117;922933;-75
2022/01/17 00:04:30;;;;;;;4.25;3.78;;;;;;;0.48;69.58;100951.38;447629;116;922681;-74
2022/01/17 00:05:34;;;;;;;4.98;4.45;;;;;;;0.50;69.70;100952.06;449922;116;922766;-75
2022/01/17 00:06:38;;;;;;;5.46;4.46;;;;;;;0.55;69.70;100949.80;444531;117;922645;-75
2022/01/17 00:07:41;;;;;;;5.85;5.21;;;;;;;0.57;69.60;100946.98;441380;118;923238;-75
2022/01/17 00:08:46;;;;;;;5.20;4.70;;;;;;;0.59;69.46;100943.19;442069;118;922632;-75
2022/01/17 00:09:49;;;;;;;5.48;4.57;;;;;;;0.61;69.27;100946.55;441203;118;930444;-75
2022/01/17 00:10:52;;;;;;;5.17;4.36;;;;;;;0.60;69.19;100946.72;450296;115;922438;-74
2022/01/17 00:11:56;;;;;;;5.91;5.29;;;;;;;0.59;69.14;100945.02;435064;119;928978;-75
2022/01/17 00:13:00;;;;;;;5.18;4.78;;;;;;;0.58;69.10;100946.85;442271;116;922721;-74
2022/01/17 00:14:05;;;;;;;5.94;5.08;;;;;;;0.57;69.09;100933.57;450091;116;922516;-75
2022/01/17 00:15:16;;;;;;;6.01;5.11;;;;;;;0.57;69.10;100933.57;450146;116;930559;-74
2022/01/17 00:16:32;;;;;;;5.54;5.04;;;;;;;0.58;69.06;100932.59;449912;115;922618;-75
2022/01/17 00:19:54;;;;;;;6.28;5.57;;;;;;;0.60;69.03;100927.94;464995;112;922619;-75
2022/01/17 00:20:56;;;;;;;6.39;5.09;;;;;;;0.58;68.97;100928.07;464226;112;923163;-75
2022/01/17 00:22:00;;;;;;;5.45;4.61;;;;;;;0.60;69.03;100930.62;465015;112;922596;-75
2022/01/17 00:23:03;;;;;;;7.35;4.52;;;;;;;0.59;69.03;100921.72;464903;112;923041;-76
2022/01/17 00:24:08;;;;;;;4.78;4.19;;;;;;;0.61;68.95;100927.77;464707;112;931381;-74
2022/01/17 00:25:12;;;;;;;5.80;4.04;;;;;;;0.61;68.95;100927.77;464049;112;923490;-76
2022/01/17 00:26:15;;;;;;;4.85;4.31;;;;;;;0.64;68.87;100929.34;465042;112;922897;-75
2022/01/17 00:27:19;;;;;;;4.69;4.17;;;;;;;0.66;68.84;100927.38;464492;113;922546;-76
2022/01/17 00:28:22;;;;;;;4.11;3.70;;;;;;;0.67;68.84;100929.89;464320;111;923235;-76
2022/01/17 00:29:27;;;;;;;4.41;3.89;;;;;;;0.69;68.77;100919.88;464247;112;922978;-75
2022/01/17 00:30:30;;;;;;;5.45;4.66;;;;;;;0.71;68.68;100928.64;464668;111;930540;-74
2022/01/17 00:31:33;;;;;;;4.62;3.71;;;;;;;0.73;68.57;100918.59;465053;113;922439;-74
2022/01/17 00:32:37;;;;;;;4.97;4.35;;;;;;;0.73;68.42;100921.27;456581;114;922967;-74
2022/01/17 00:33:40;;;;;;;5.04;4.16;;;;;;;0.74;68.34;100911.39;456221;114;922671;-76
2022/01/17 00:34:44;;;;;;;6.58;5.37;;;;;;;0.73;68.21;100915.90;465295;111;922594;-75
2022/01/17 00:35:47;;;;;;;5.73;4.99;;;;;;;0.72;68.15;100919.57;464599;112;922607;-75
2022/01/17 00:36:51;;;;;;;6.77;4.02;;;;;;;0.70;68.14;100921.57;463793;112;922707;-74
2022/01/17 00:37:54;;;;;;;5.78;5.04;;;;;;;0.70;68.05;100913.52;464680;111;923754;-75
2022/01/17 00:38:58;;;;;;;4.95;3.92;;;;;;;0.70;68.09;100908.16;464835;113;930534;-75
2022/01/17 00:40:01;;;;;;;5.94;4.64;;;;;;;0.70;68.05;100910.84;464006;113;923504;-75
2022/01/17 00:41:04;;;;;;;4.91;3.91;;;;;;;0.71;68.08;100909.85;464657;112;922654;-75
2022/01/17 00:42:08;;;;;;;4.88;4.14;;;;;;;0.72;68.00;100906.16;463738;112;922705;-74
2022/01/17 00:43:13;;;;;;;5.85;3.29;;;;;;;0.72;67.98;100910.67;464988;112;922556;-75
2022/01/17 00:44:21;;;;;;;4.37;3.68;;;;;;;0.72;67.97;100898.10;464360;114;930585;-75
2022/01/17 00:45:27;;;;;;;3.22;2.64;;;;;;;0.74;67.99;100906.02;464359;112;922453;-75
2022/01/17 00:46:27;;;;;;;4.24;2.91;;;;;;;0.75;68.00;100908.56;464672;113;922678;-75
2022/01/17 00:47:30;;;;;;;3.08;2.40;;;;;;;0.76;67.89;100906.73;464917;113;922755;-75
2022/01/17 00:48:34;;;;;;;5.11;3.32;;;;;;;0.77;67.82;100903.06;464028;112;930796;-75
2022/01/17 00:49:37;;;;;;;3.06;2.42;;;;;;;0.76;67.78;100909.41;463716;112;922859;-74
2022/01/17 00:50:41;;;;;;;3.17;2.74;;;;;;;0.75;67.69;100907.72;464680;113;930470;-76
2022/01/17 00:51:44;;;;;;;3.67;2.64;;;;;;;0.74;67.64;100906.02;464667;112;930591;-75
2022/01/17 00:52:48;;;;;;;4.51;2.70;;;;;;;0.72;67.59;100905.30;456853;114;923097;-75
2022/01/17 00:53:52;;;;;;;4.24;2.59;;;;;;;0.71;67.63;100903.64;456831;114;922700;-75
2022/01/17 00:54:55;;;;;;;4.57;3.05;;;;;;;0.69;67.54;100889.50;464842;111;930554;-75
2022/01/17 00:55:58;;;;;;;3.81;2.95;;;;;;;0.66;67.51;100887.94;464905;111;922718;-75
2022/01/17 00:57:02;;;;;;;3.12;2.64;;;;;;;0.64;67.54;100891.77;464231;112;922661;-75
2022/01/17 00:58:06;;;;;;;4.32;2.95;;;;;;;0.62;67.59;100883.86;464367;113;922606;-76
2022/01/17 00:59:10;;;;;;;4.30;3.16;;;;;;;0.62;67.62;100891.06;464600;112;923296;-76
2022/01/17 01:00:14;;;;;;;4.11;2.95;;;;;;;0.60;67.59;100885.86;464883;112;922523;-73
2022/01/17 01:01:18;;;;;;;3.95;3.09;;;;;;;0.61;67.70;100886.67;464507;111;922569;-74
2022/01/17 01:02:21;;;;;;;4.74;3.13;;;;;;;0.60;67.63;100890.38;464268;112;923052;-74
2022/01/17 01:03:26;;;;;;;4.07;2.96;;;;;;;0.60;67.71;100880.49;464505;112;923241;-75
2022/01/17 01:04:29;;;;;;;4.33;3.04;;;;;;;0.61;67.78;100875.94;464306;112;922712;-76
2022/01/17 01:05:34;;;;;;;4.99;3.56;;;;;;;0.62;67.87;100873.12;464183;112;922857;-76
2022/01/17 01:06:37;;;;;;;4.82;3.28;;;;;;;0.64;67.82;100876.52;455793;114;930582;-74
2022/01/17 01:07:40;;;;;;;5.60;3.49;;;;;;;0.65;67.77;100869.32;457375;114;923123;-75
2022/01/17 01:08:43;;;;;;;3.54;3.15;;;;;;;0.63;67.74;100869.45;464691;111;930685;-75
2022/01/17 01:10:01;;;;;;;4.35;3.52;;;;;;;0.64;67.71;100875.67;464067;113;922621;-75
2022/01/17 01:10:52;;;;;;;6.13;3.30;;;;;;;0.64;67.68;100872.98;462601;114;922545;-76
2022/01/17 01:11:56;;;;;;;5.22;4.40;;;;;;;0.64;67.66;100867.63;464650;114;922612;-76
2022/01/17 01:13:00;;;;;;;5.66;4.15;;;;;;;0.64;67.63;100875.67;464859;112;922995;-75
2022/01/17 01:14:04;;;;;;;4.56;3.54;;;;;;;0.64;67.55;100873.84;464441;112;922553;-75
2022/01/17 01:15:17;;;;;;;5.95;3.83;;;;;;;0.65;67.57;100877.37;464945;112;922979;-75
2022/01/17 01:17:47;;;;;;;5.76;4.35;;;;;;;0.66;67.50;100874.52;464606;112;922419;-76
2022/01/17 01:20:14;;;;;;;7.27;4.27;;;;;;;0.65;67.57;100874.69;464651;112;922608;-75
2022/01/17 01:27:47;;;;;;;6.98;4.84;;;;;;;0.60;67.33;100863.55;464600;113;922566;-74
2022/01/17 01:28:46;;;;;;;7.26;5.27;;;;;;;0.60;67.26;100864.39;464335;111;922490;-74
2022/01/17 01:29:56;;;;;;;7.35;5.16;;;;;;;0.60;67.17;100863.55;464163;111;922785;-75
2022/01/17 01:30:57;;;;;;;6.66;5.20;;;;;;;0.60;67.11;100860.86;464300;112;923220;-74
2022/01/17 01:32:07;;;;;;;6.88;5.28;;;;;;;0.60;67.04;100864.39;464985;112;922590;-74
2022/01/17 01:33:08;;;;;;;8.32;5.63;;;;;;;0.60;66.96;100855.50;464009;113;922576;-75
2022/01/17 01:34:13;;;;;;;9.32;5.90;;;;;;;0.59;66.89;100857.33;463986;112;922731;-75
2022/01/17 01:35:19;;;;;;;7.03;5.34;;;;;;;0.59;66.75;100849.28;464611;112;923920;-75
2022/01/17 01:36:27;;;;;;;7.42;5.13;;;;;;;0.60;66.77;100850.98;464878;112;923139;-75
2022/01/17 01:37:27;;;;;;;7.50;5.63;;;;;;;0.61;66.76;100855.33;464580;112;922993;-75
2022/01/17 01:38:31;;;;;;;6.38;5.34;;;;;;;0.61;66.73;100855.33;464319;111;922544;-75
2022/01/17 01:39:35;;;;;;;6.60;5.12;;;;;;;0.62;66.74;100850.81;464830;112;922550;-74
2022/01/17 01:40:38;;;;;;;6.66;5.09;;;;;;;0.62;66.72;100854.34;467761;112;922602;-75
2022/01/17 01:41:43;;;;;;;8.12;5.90;;;;;;;0.63;66.64;100852.51;467452;110;923701;-74
2022/01/17 01:42:49;;;;;;;7.39;5.29;;;;;;;0.63;66.45;100847.14;464483;112;922677;-76
2022/01/17 01:43:52;;;;;;;7.11;5.53;;;;;;;0.62;66.34;100848.98;464237;112;930727;-75
2022/01/17 01:44:55;;;;;;;6.61;5.84;;;;;;;0.61;66.33;100843.74;464745;113;922554;-75
2022/01/17 01:46:01;;;;;;;7.03;5.79;;;;;;;0.62;66.33;100850.81;464058;111;930509;-75
2022/01/17 01:47:04;;;;;;;7.36;5.73;;;;;;;0.62;66.22;100843.61;454694;114;923094;-75
2022/01/17 01:48:09;;;;;;;8.69;6.19;;;;;;;0.63;66.11;100842.62;445190;114;922657;-75
2022/01/17 01:49:13;;;;;;;8.74;6.36;;;;;;;0.63;66.14;100839.09;464530;112;922525;-75
2022/01/17 01:50:19;;;;;;;7.36;6.61;;;;;;;0.63;66.18;100842.62;463722;112;930530;-75
2022/01/17 01:51:22;;;;;;;8.26;6.21;;;;;;;0.64;66.11;100838.95;464563;112;922566;-74
2022/01/17 01:52:25;;;;;;;8.08;6.37;;;;;;;0.66;66.14;100830.77;464886;112;922995;-75
2022/01/17 01:53:29;;;;;;;8.14;6.44;;;;;;;0.70;66.12;100837.53;463848;112;922950;-75
2022/01/17 01:54:32;;;;;;;7.14;6.20;;;;;;;0.74;66.03;100829.03;464080;111;930761;-74
2022/01/17 01:55:35;;;;;;;9.53;6.61;;;;;;;0.76;65.88;100826.22;464513;112;922880;-75
2022/01/17 01:56:43;;;;;;;7.83;6.09;;;;;;;0.77;65.74;100828.73;464734;113;922805;-75
2022/01/17 01:57:46;;;;;;;8.08;6.17;;;;;;;0.80;65.61;100822.24;464689;112;922715;-74
2022/01/17 01:58:50;;;;;;;6.54;5.67;;;;;;;0.81;65.43;100814.05;464686;112;923354;-74
2022/01/17 01:59:56;;;;;;;8.33;5.76;;;;;;;0.81;65.26;100819.42;464894;113;930515;-74
2022/01/17 02:01:01;;;;;;;7.78;5.51;;;;;;;0.80;65.02;100816.87;449831;116;922709;-74
2022/01/17 02:02:06;;;;;;;8.07;5.42;;;;;;;0.77;64.92;100807.27;450404;114;922651;-75
2022/01/17 02:03:09;;;;;;;10.14;6.56;;;;;;;0.76;64.96;100804.75;464252;113;922630;-74
2022/01/17 02:04:14;;;;;;;6.49;5.39;;;;;;;0.76;64.91;100802.06;464271;111;922966;-75
2022/01/17 02:05:17;;;;;;;6.02;5.35;;;;;;;0.76;64.82;100800.23;464472;111;930618;-73
2022/01/17 02:06:22;;;;;;;6.54;5.12;;;;;;;0.76;64.76;100802.06;464351;112;923093;-74
2022/01/17 02:07:25;;;;;;;7.02;5.30;;;;;;;0.78;64.70;100798.22;464039;112;923209;-73
2022/01/17 02:08:30;;;;;;;5.91;4.87;;;;;;;0.81;64.59;100800.63;464658;112;930599;-74
2022/01/17 02:09:33;;;;;;;7.60;5.53;;;;;;;0.83;64.50;100800.46;464688;112;923068;-75
2022/01/17 02:10:37;;;;;;;6.58;5.15;;;;;;;0.86;64.41;100800.19;463822;112;923449;-75
2022/01/17 02:11:41;;;;;;;6.59;4.96;;;;;;;0.88;64.42;100803.58;464379;113;922750;-74
2022/01/17 02:12:44;;;;;;;5.81;4.75;;;;;;;0.93;64.31;100797.77;464974;112;930637;-74
2022/01/17 02:13:47;;;;;;;5.08;4.10;;;;;;;0.97;64.17;100804.52;464442;112;922643;-75
2022/01/17 02:14:50;;;;;;;6.13;4.31;;;;;;;0.99;63.89;100805.23;464009;112;922666;-73
2022/01/17 02:16:05;;;;;;;6.28;4.72;;;;;;;1.01;63.64;100803.22;464883;112;922758;-74
2022/01/17 02:17:09;;;;;;;5.75;4.63;;;;;;;1.01;63.52;100801.39;463111;112;922707;-74
2022/01/17 02:18:18;;;;;;;7.43;4.84;;;;;;;1.02;63.53;100804.92;464411;112;922976;-75
2022/01/17 02:19:25;;;;;;;8.89;4.52;;;;;;;1.05;63.42;100800.09;462882;112;922650;-74
2022/01/17 02:20:38;;;;;;;6.23;4.57;;;;;;;1.06;63.31;100806.31;464467;112;922829;-73
2022/01/17 02:21:45;;;;;;;5.72;4.67;;;;;;;1.08;63.21;100810.55;463591;112;922559;-74
2022/01/17 02:22:40;;;;;;;6.40;5.06;;;;;;;1.08;63.07;100805.18;463303;112;922930;-75
2022/01/17 02:23:46;;;;;;;5.78;5.08;;;;;;;1.08;62.97;100791.75;463990;112;922610;-74
2022/01/17 02:24:49;;;;;;;5.82;4.78;;;;;;;1.10;62.87;100784.38;464295;114;922952;-73
2022/01/17 02:25:55;;;;;;;6.03;5.06;;;;;;;1.09;62.64;100789.92;464877;112;922884;-74
2022/01/17 02:26:58;;;;;;;6.68;5.14;;;;;;;1.08;62.53;100788.22;464004;114;930991;-76
2022/01/17 02:28:01;;;;;;;5.31;4.49;;;;;;;1.07;62.52;100791.89;464175;112;922542;-74
2022/01/17 02:29:06;;;;;;;5.33;4.44;;;;;;;1.07;62.48;100775.78;464763;112;922719;-74
2022/01/17 02:30:12;;;;;;;5.73;4.36;;;;;;;1.07;62.46;100776.63;464397;114;930572;-76
2022/01/17 02:31:16;;;;;;;4.75;3.63;;;;;;;1.07;62.22;100782.00;464277;112;923026;-74
2022/01/17 02:32:19;;;;;;;5.83;4.25;;;;;;;1.06;62.01;100790.20;464752;112;923399;-75
2022/01/17 02:33:23;;;;;;;4.88;3.75;;;;;;;1.03;61.98;100785.98;464888;112;923036;-75
2022/01/17 02:34:27;;;;;;;4.54;3.72;;;;;;;1.01;61.94;100787.97;464764;113;923180;-76
2022/01/17 02:35:31;;;;;;;3.91;3.49;;;;;;;1.00;61.87;100775.53;464573;112;923360;-75
2022/01/17 02:36:34;;;;;;;4.23;3.61;;;;;;;1.01;61.85;100777.22;464898;112;922455;-74
2022/01/17 02:37:38;;;;;;;5.81;4.07;;;;;;;1.02;61.81;100773.55;465278;114;923035;-74
2022/01/17 02:38:41;;;;;;;5.39;3.37;;;;;;;1.03;61.74;100769.88;464613;112;922992;-75
2022/01/17 02:39:45;;;;;;;4.75;3.62;;;;;;;1.04;61.57;100768.89;464516;112;922519;-73
2022/01/17 02:40:50;;;;;;;5.71;3.51;;;;;;;1.04;61.56;100765.36;464683;114;922575;-74
2022/01/17 02:41:53;;;;;;;4.43;3.67;;;;;;;1.06;61.47;100752.61;464996;112;922499;-72
2022/01/17 02:43:05;;;;;;;4.28;3.36;;;;;;;1.08;61.21;100761.38;464399;112;930471;-73
2022/01/17 02:44:08;;;;;;;4.43;3.74;;;;;;;1.06;60.94;100756.14;464641;112;922625;-74
2022/01/17 02:45:30;;;;;;;5.48;4.00;;;;;;;1.05;60.86;100756.28;464643;114;922629;-74
2022/01/17 02:46:27;;;;;;;4.91;4.06;;;;;;;1.05;60.80;100756.28;462793;114;922766;-75
2022/01/17 02:47:30;;;;;;;4.29;3.45;;;;;;;1.04;60.73;100747.41;464354;112;922728;-74
2022/01/17 02:48:36;;;;;;;3.76;3.24;;;;;;;1.04;60.61;100746.56;454806;114;922700;-75
2022/01/17 02:49:39;;;;;;;4.17;3.39;;;;;;;1.02;60.56;100743.17;448644;118;930570;-74
2022/01/17 02:50:43;;;;;;;4.55;3.74;;;;;;;1.01;60.40;100745.01;448741;116;922686;-74
2022/01/17 02:51:48;;;;;;;5.29;4.24;;;;;;;1.00;60.25;100739.78;448505;116;930780;-75
2022/01/17 02:52:51;;;;;;;5.60;3.47;;;;;;;0.97;60.20;100740.09;454803;114;923457;-75
2022/01/17 02:53:55;;;;;;;6.97;5.77;;;;;;;0.96;60.20;100738.39;448340;118;923028;-75
2022/01/17 02:54:58;;;;;;;9.27;7.96;;;;;;;0.92;60.23;100740.55;448614;118;922528;-74
2022/01/17 02:56:05;;;;;;;9.44;8.56;;;;;;;0.89;60.12;100734.61;448031;116;930589;-75
2022/01/17 02:57:08;;;;;;;8.22;7.32;;;;;;;0.87;60.20;100736.61;442795;117;922640;-75
2022/01/17 02:58:12;;;;;;;8.23;7.53;;;;;;;0.86;60.27;100737.60;449868;117;922679;-75
2022/01/17 02:59:15;;;;;;;7.30;6.06;;;;;;;0.84;60.29;100738.59;449769;117;922524;-74
2022/01/17 03:00:19;;;;;;;7.09;5.73;;;;;;;0.87;60.29;100742.83;449632;117;922567;-74
2022/01/17 03:01:25;;;;;;;7.30;6.51;;;;;;;0.87;60.18;100733.93;449214;117;930709;-74
2022/01/17 03:02:29;;;;;;;11.82;10.65;;;;;;;0.88;60.28;100732.94;449593;117;930801;-74
2022/01/17 03:03:33;;;;;;;11.65;10.61;;;;;;;0.88;60.28;100731.11;450284;115;922853;-74
2022/01/17 03:04:37;;;;;;;39.59;26.94;;;;;;;0.90;60.15;100737.15;450870;115;922654;-74
2022/01/17 03:05:40;;;;;;;49.60;32.98;;;;;;;0.90;60.13;100729.09;450167;115;922562;-75
2022/01/17 03:06:44;;;;;;;89.99;55.18;;;;;;;0.91;60.16;100733.48;450981;117;922637;-74
2022/01/17 03:07:49;;;;;;;107.83;64.02;;;;;;;0.92;60.21;100731.64;448939;117;923071;-75
2022/01/17 03:08:52;;;;;;;108.82;65.87;;;;;;;0.94;60.24;100733.17;446470;116;922596;-74
2022/01/17 03:10:02;;;;;;;82.96;51.83;;;;;;;0.95;60.33;100728.64;446683;117;922857;-76
2022/01/17 03:11:05;;;;;;;44.62;34.89;;;;;;;0.96;60.31;100733.88;446413;116;922619;-75
2022/01/17 03:12:09;;;;;;;19.67;17.99;;;;;;;0.99;60.41;100727.38;446525;116;922639;-74
2022/01/17 03:13:19;;;;;;;7.88;7.17;;;;;;;0.99;60.28;100728.22;446649;117;923436;-75
2022/01/17 03:14:22;;;;;;;5.65;4.94;;;;;;;0.98;60.11;100721.16;448602;118;923151;-74
2022/01/17 03:15:26;;;;;;;5.36;4.80;;;;;;;0.97;60.00;100730.20;449097;117;923097;-74
2022/01/17 03:16:32;;;;;;;7.41;5.08;;;;;;;0.94;59.88;100722.42;448643;115;923427;-72
2022/01/17 03:17:34;;;;;;;6.16;4.54;;;;;;;0.92;60.04;100729.80;448050;116;922878;-73
2022/01/17 03:18:41;;;;;;;4.99;4.28;;;;;;;0.93;60.18;100728.81;442651;116;922963;-74
2022/01/17 03:19:44;;;;;;;5.75;4.84;;;;;;;0.94;60.22;100729.66;448198;118;922589;-76
2022/01/17 03:20:48;;;;;;;5.17;4.45;;;;;;;0.95;60.21;100729.49;447718;116;922995;-74
2022/01/17 03:21:51;;;;;;;4.42;3.95;;;;;;;0.97;60.09;100726.67;447653;118;930583;-74
2022/01/17 03:22:55;;;;;;;4.23;3.37;;;;;;;0.96;60.14;100725.82;448537;118;922797;-73
2022/01/17 03:23:58;;;;;;;4.32;3.48;;;;;;;0.95;60.14;100726.81;448200;116;922632;-74
2022/01/17 03:25:02;;;;;;;3.66;3.18;;;;;;;0.95;60.10;100726.81;437803;118;922804;-74
2022/01/17 03:26:06;;;;;;;3.92;3.09;;;;;;;0.94;59.99;100726.98;456725;114;923081;-72
2022/01/17 03:27:09;;;;;;;3.46;3.04;;;;;;;0.92;60.06;100732.48;464872;112;922929;-74
2022/01/17 03:28:13;;;;;;;2.95;2.65;;;;;;;0.92;60.02;100734.33;465154;112;922856;-74
2022/01/17 03:29:16;;;;;;;3.86;3.19;;;;;;;0.92;60.07;100735.17;464562;111;922546;-74
2022/01/17 03:30:22;;;;;;;2.91;2.32;;;;;;;0.94;60.06;100735.03;464008;111;930535;-74
2022/01/17 03:31:25;;;;;;;3.69;2.69;;;;;;;0.96;60.01;100733.88;465044;112;930433;-74
2022/01/17 03:32:29;;;;;;;3.40;2.72;;;;;;;0.97;59.90;100727.52;464458;112;930673;-73
2022/01/17 03:33:32;;;;;;;2.81;2.31;;;;;;;0.98;59.93;100729.21;464282;111;922736;-74
2022/01/17 03:34:38;;;;;;;3.99;2.85;;;;;;;0.97;59.88;100726.67;463909;111;922600;-74
2022/01/17 03:35:41;;;;;;;3.17;2.18;;;;;;;0.99;59.91;100732.74;465084;111;922568;-74
2022/01/17 03:36:45;;;;;;;3.47;2.64;;;;;;;0.98;59.88;100729.21;463804;112;922572;-74
2022/01/17 03:37:49;;;;;;;3.88;2.67;;;;;;;1.01;59.91;100722.68;464200;112;922575;-74
2022/01/17 03:38:54;;;;;;;4.53;2.46;;;;;;;1.02;59.73;100727.91;464454;112;922497;-75
2022/01/17 03:39:57;;;;;;;3.10;2.42;;;;;;;1.03;59.63;100728.76;464519;111;930506;-75
2022/01/17 03:41:02;;;;;;;3.62;2.67;;;;;;;1.00;59.62;100727.20;464101;111;930986;-74
2022/01/17 03:42:06;;;;;;;3.14;2.57;;;;;;;0.99;59.69;100725.54;464424;112;923073;-74
2022/01/17 03:43:09;;;;;;;2.86;2.45;;;;;;;1.01;59.77;100730.73;464828;111;922570;-75
2022/01/17 03:44:12;;;;;;;2.46;2.26;;;;;;;1.02;59.62;100730.59;465054;112;922597;-75
2022/01/17 03:45:15;;;;;;;3.86;3.12;;;;;;;1.02;59.58;100730.59;464589;111;923113;-74
2022/01/17 03:46:19;;;;;;;4.28;2.78;;;;;;;1.00;59.48;100721.83;464450;112;922580;-76
2022/01/17 03:47:22;;;;;;;3.02;2.44;;;;;;;0.98;59.52;100726.53;464866;112;922500;-75
2022/01/17 03:48:28;;;;;;;2.87;2.44;;;;;;;0.97;59.52;100722.14;464742;113;922853;-76
2022/01/17 03:49:31;;;;;;;3.24;2.48;;;;;;;0.95;59.49;100724.13;463228;112;922751;-73
2022/01/17 03:50:34;;;;;;;2.67;2.24;;;;;;;0.93;59.61;100720.77;463973;112;922825;-75
2022/01/17 03:51:37;;;;;;;3.39;2.51;;;;;;;0.94;59.67;100713.56;464660;112;922434;-74
2022/01/17 03:52:41;;;;;;;2.46;2.21;;;;;;;0.94;59.66;100713.56;464826;112;923085;-75
2022/01/17 03:53:44;;;;;;;3.06;2.16;;;;;;;0.95;59.70;100720.59;464174;112;922613;-74
2022/01/17 03:54:47;;;;;;;2.90;2.44;;;;;;;0.94;59.63;100722.42;464692;112;922617;-75
2022/01/17 03:55:54;;;;;;;3.12;2.21;;;;;;;0.95;59.65;100718.75;463922;112;922639;-74
2022/01/17 03:56:59;;;;;;;3.36;2.63;;;;;;;0.97;59.76;100722.14;464750;114;923108;-75
2022/01/17 03:58:04;;;;;;;3.95;3.34;;;;;;;0.98;59.73;100717.63;464295;112;922629;-74
2022/01/17 03:59:07;;;;;;;7.63;6.94;;;;;;;0.98;59.62;100715.79;464680;112;923286;-75
2022/01/17 04:00:14;;;;;;;7.99;6.01;;;;;;;0.97;59.43;100722.14;464407;111;922448;-75
2022/01/17 04:01:19;;;;;;;6.60;5.97;;;;;;;0.94;59.35;100719.74;465254;111;922885;-75
2022/01/17 04:02:22;;;;;;;7.56;6.87;;;;;;;0.91;59.46;100706.64;463884;112;922880;-74
2022/01/17 04:03:27;;;;;;;13.24;11.97;;;;;;;0.89;59.51;100713.98;464599;113;922968;-76
2022/01/17 04:04:30;;;;;;;15.89;14.20;;;;;;;0.88;59.55;100715.00;464810;112;930398;-75
2022/01/17 04:05:34;;;;;;;25.79;22.90;;;;;;;0.90;59.63;100712.14;464499;114;923171;-76
2022/01/17 04:06:37;;;;;;;22.31;20.05;;;;;;;0.89;59.61;100716.67;464570;111;922714;-74
2022/01/17 04:07:40;;;;;;;22.64;20.46;;;;;;;0.87;59.69;100713.30;464030;111;930659;-75
2022/01/17 04:08:43;;;;;;;16.79;15.31;;;;;;;0.86;59.66;100702.70;464831;111;922524;-75
2022/01/17 04:09:47;;;;;;;21.21;19.34;;;;;;;0.82;59.59;100702.17;464882;113;922716;-75
2022/01/17 04:10:50;;;;;;;17.94;16.31;;;;;;;0.79;59.73;100703.30;464421;112;922579;-75
2022/01/17 04:11:53;;;;;;;13.71;12.41;;;;;;;0.80;59.85;100698.78;464573;112;922560;-76
2022/01/17 04:13:01;;;;;;;10.78;9.82;;;;;;;0.79;59.92;100697.94;464338;111;922759;-74
2022/01/17 04:14:03;;;;;;;11.27;10.33;;;;;;;0.81;59.99;100689.74;464596;112;922834;-73
2022/01/17 04:15:08;;;;;;;11.56;10.64;;;;;;;0.84;60.08;100692.11;464485;112;922524;-76
2022/01/17 04:16:13;;;;;;;6.79;6.17;;;;;;;0.87;60.04;100691.83;464310;111;930552;-78
2022/01/17 04:17:16;;;;;;;4.88;4.15;;;;;;;0.88;59.82;100690.00;462778;112;923269;-72
2022/01/17 04:18:23;;;;;;;3.48;3.02;;;;;;;0.86;59.75;100687.45;464368;111;922603;-74
2022/01/17 04:19:25;;;;;;;3.87;2.09;;;;;;;0.83;59.80;100691.27;464277;112;922617;-75
2022/01/17 04:20:29;;;;;;;3.67;2.34;;;;;;;0.82;59.74;100686.07;458173;115;923035;-73
2022/01/17 04:21:35;;;;;;;2.38;2.01;;;;;;;0.80;59.76;100693.42;459045;113;922603;-75
2022/01/17 04:22:43;;;;;;;3.24;2.24;;;;;;;0.77;59.82;100681.13;465358;111;922737;-78
2022/01/17 04:23:47;;;;;;;2.63;2.07;;;;;;;0.76;59.78;100681.30;465549;112;922505;-73
2022/01/17 04:24:50;;;;;;;3.36;2.60;;;;;;;0.73;59.84;100687.80;458014;114;922496;-75
2022/01/17 04:25:53;;;;;;;3.43;2.74;;;;;;;0.73;59.86;100682.42;459173;113;922537;-74
2022/01/17 04:26:57;;;;;;;3.08;2.77;;;;;;;0.71;59.87;100684.44;464945;112;930636;-75
2022/01/17 04:28:03;;;;;;;3.41;2.84;;;;;;;0.71;59.93;100678.22;465823;111;922492;-73
2022/01/17 04:29:07;;;;;;;2.80;2.46;;;;;;;0.70;60.05;100679.21;466363;111;922667;-75
2022/01/17 04:30:13;;;;;;;2.71;2.46;;;;;;;0.70;60.08;100682.74;465485;113;922844;-75
2022/01/17 04:31:17;;;;;;;2.92;2.41;;;;;;;0.70;60.13;100677.37;465549;113;922511;-76
2022/01/17 04:32:23;;;;;;;3.26;2.93;;;;;;;0.70;60.22;100679.21;465060;112;928815;-75
2022/01/17 04:33:27;;;;;;;2.62;2.42;;;;;;;0.70;60.31;100671.16;465726;112;922507;-74
2022/01/17 04:34:32;;;;;;;3.04;2.61;;;;;;;0.70;60.26;100674.69;465930;112;930434;-76
2022/01/17 04:35:36;;;;;;;3.11;2.44;;;;;;;0.69;60.27;100672.14;464855;111;922847;-75
2022/01/17 04:36:39;;;;;;;3.85;2.78;;;;;;;0.69;60.43;100678.36;465310;112;922533;-75
2022/01/17 04:37:43;;;;;;;2.61;2.01;;;;;;;0.70;60.55;100679.21;465562;112;922713;-74
2022/01/17 04:38:46;;;;;;;2.87;2.32;;;;;;;0.74;60.59;100675.22;465357;112;927278;-75
2022/01/17 04:39:49;;;;;;;3.65;2.52;;;;;;;0.76;60.47;100678.62;465776;111;923347;-73
2022/01/17 04:41:02;;;;;;;3.04;2.67;;;;;;;0.77;60.44;100672.26;465567;111;922860;-72
2022/01/17 04:42:09;;;;;;;3.53;2.81;;;;;;;0.79;60.43;100678.30;464707;113;922620;-75
2022/01/17 04:45:46;;;;;;;3.06;2.28;;;;;;;0.78;60.23;100661.34;465583;111;922951;-74
2022/01/17 04:46:49;;;;;;;3.17;2.48;;;;;;;0.78;60.37;100665.88;465453;111;922520;-74
2022/01/17 04:47:53;;;;;;;3.50;2.97;;;;;;;0.78;60.39;100661.34;465520;113;930576;-75
2022/01/17 04:48:58;;;;;;;3.24;2.59;;;;;;;0.79;60.36;100652.31;465073;111;922650;-76
2022/01/17 04:50:02;;;;;;;3.05;2.39;;;;;;;0.81;60.42;100652.17;465154;113;922504;-76
2022/01/17 04:51:05;;;;;;;3.46;3.00;;;;;;;0.80;60.34;100651.33;465035;112;922877;-76
2022/01/17 04:52:13;;;;;;;3.92;2.91;;;;;;;0.80;60.37;100650.48;465211;111;930600;-75
2022/01/17 04:53:17;;;;;;;3.52;2.92;;;;;;;0.81;60.35;100650.33;465358;111;922894;-75
2022/01/17 04:55:28;;;;;;;3.29;2.72;;;;;;;0.79;60.32;100641.58;465804;113;922520;-74
2022/01/17 04:56:31;;;;;;;3.15;2.55;;;;;;;0.77;60.28;100638.19;465078;112;922649;-74
2022/01/17 04:57:35;;;;;;;3.20;2.87;;;;;;;0.76;60.21;100638.36;469278;111;923032;-74
2022/01/17 04:58:38;;;;;;;4.39;3.41;;;;;;;0.73;60.43;100639.49;468691;112;922885;-74
2022/01/17 04:59:42;;;;;;;3.68;3.19;;;;;;;0.74;60.44;100640.34;465529;111;923043;-77
2022/01/17 05:00:46;;;;;;;4.14;2.66;;;;;;;0.75;60.33;100642.03;465465;112;926678;-73
2022/01/17 05:01:50;;;;;;;3.74;3.27;;;;;;;0.74;60.31;100646.55;465787;111;923456;-74
2022/01/17 05:02:54;;;;;;;3.45;2.93;;;;;;;0.73;60.29;100644.02;465801;112;922628;-73
2022/01/17 05:03:57;;;;;;;5.23;3.63;;;;;;;0.71;60.33;100646.02;465908;111;930696;-76
2022/01/17 05:05:04;;;;;;;5.13;3.25;;;;;;;0.69;60.38;100648.84;465243;112;930651;-74
2022/01/17 05:06:08;;;;;;;4.29;3.42;;;;;;;0.69;60.47;100639.95;465663;111;922764;-75
2022/01/17 05:07:13;;;;;;;5.04;3.67;;;;;;;0.70;60.51;100638.95;465661;113;922638;-76
2022/01/17 05:08:17;;;;;;;4.31;3.53;;;;;;;0.71;60.59;100635.28;464928;112;922673;-75
2022/01/17 05:09:21;;;;;;;4.64;3.33;;;;;;;0.74;60.62;100643.02;465453;111;922602;-75
2022/01/17 05:10:25;;;;;;;5.77;3.92;;;;;;;0.75;60.65;100642.03;465064;112;922545;-75
2022/01/17 05:11:30;;;;;;;4.73;3.40;;;;;;;0.78;60.67;100645.25;465574;112;923057;-73
2022/01/17 05:12:34;;;;;;;5.11;3.53;;;;;;;0.79;60.57;100638.89;465263;112;922658;-75
2022/01/17 05:13:44;;;;;;;5.03;3.77;;;;;;;0.81;60.56;100644.97;465353;112;930629;-73